sensor_id;sensor_type;location;lat;lon;timestamp;pressure;altitude;pressure_sealevel;temperature;humidity
59009;BME280;44794;42.652;23.318;2022-08-19T00:00:47;94277.31;;;20.32;64.21
59009;BME280;44794;42.652;23.318;2022-08-19T00:03:15;94281.97;;;20.30;64.90
59009;BME280;44794;42.652;23.318;2022-08-19T00:05:40;94284.72;;;20.37;65.26
59009;BME280;44794;42.652;23.318;2022-08-19T00:08:06;94286.22;;;20.53;64.26
59009;BME280;44794;42.652;23.318;2022-08-19T00:10:32;94286.47;;;20.58;64.19
59009;BME280;44794;42.652;23.318;2022-08-19T00:12:59;94282.50;;;20.62;63.62
59009;BME280;44794;42.652;23.318;2022-08-19T00:15:24;94292.41;;;20.60;63.49
59009;BME280;44794;42.652;23.318;2022-08-19T00:17:50;94294.41;;;20.58;63.94
59009;BME280;44794;42.652;23.318;2022-08-19T00:20:18;94290.75;;;20.59;63.59
59009;BME280;44794;42.652;23.318;2022-08-19T00:22:45;94295.69;;;20.62;63.34
59009;BME280;44794;42.652;23.318;2022-08-19T00:25:11;94303.31;;;20.57;63.15
59009;BME280;44794;42.652;23.318;2022-08-19T00:27:37;94301.06;;;20.54;63.44
59009;BME280;44794;42.652;23.318;2022-08-19T00:30:04;94303.84;;;20.53;63.48
59009;BME280;44794;42.652;23.318;2022-08-19T00:32:30;94300.06;;;20.55;62.99
59009;BME280;44794;42.652;23.318;2022-08-19T00:34:55;94295.78;;;20.54;63.16
59009;BME280;44794;42.652;23.318;2022-08-19T00:37:22;94292.13;;;20.55;63.52
59009;BME280;44794;42.652;23.318;2022-08-19T00:39:48;94297.13;;;20.50;63.46
59009;BME280;44794;42.652;23.318;2022-08-19T00:42:14;94294.19;;;20.45;63.54
59009;BME280;44794;42.652;23.318;2022-08-19T00:44:41;94293.75;;;20.42;63.67
59009;BME280;44794;42.652;23.318;2022-08-19T00:47:06;94293.09;;;20.40;64.26
59009;BME280;44794;42.652;23.318;2022-08-19T00:49:41;94287.06;;;20.32;64.85
59009;BME280;44794;42.652;23.318;2022-08-19T00:52:16;94294.06;;;20.25;64.66
59009;BME280;44794;42.652;23.318;2022-08-19T00:54:44;94287.84;;;20.18;65.02
59009;BME280;44794;42.652;23.318;2022-08-19T00:57:15;94284.47;;;20.09;65.46
59009;BME280;44794;42.652;23.318;2022-08-19T00:59:44;94286.97;;;20.03;66.17
59009;BME280;44794;42.652;23.318;2022-08-19T01:02:11;94286.84;;;19.96;66.07
59009;BME280;44794;42.652;23.318;2022-08-19T01:04:37;94287.38;;;19.92;65.80
59009;BME280;44794;42.652;23.318;2022-08-19T01:07:03;94290.34;;;19.89;65.71
59009;BME280;44794;42.652;23.318;2022-08-19T01:09:29;94283.44;;;19.88;66.68
59009;BME280;44794;42.652;23.318;2022-08-19T01:11:55;94282.16;;;19.84;67.45
59009;BME280;44794;42.652;23.318;2022-08-19T01:14:21;94289.94;;;19.77;67.85
59009;BME280;44794;42.652;23.318;2022-08-19T01:16:47;94289.66;;;19.72;67.15
59009;BME280;44794;42.652;23.318;2022-08-19T01:19:21;94284.72;;;19.69;66.52
59009;BME280;44794;42.652;23.318;2022-08-19T01:22:02;94285.72;;;19.68;67.40
59009;BME280;44794;42.652;23.318;2022-08-19T01:24:29;94285.59;;;19.62;67.79
59009;BME280;44794;42.652;23.318;2022-08-19T01:26:56;94288.75;;;19.58;67.92
59009;BME280;44794;42.652;23.318;2022-08-19T01:29:21;94282.03;;;19.55;68.25
59009;BME280;44794;42.652;23.318;2022-08-19T01:31:46;94277.28;;;19.51;68.25
59009;BME280;44794;42.652;23.318;2022-08-19T01:34:12;94294.44;;;19.47;68.50
59009;BME280;44794;42.652;23.318;2022-08-19T01:36:43;94290.38;;;19.36;69.44
59009;BME280;44794;42.652;23.318;2022-08-19T01:39:13;94287.91;;;19.27;69.18
59009;BME280;44794;42.652;23.318;2022-08-19T01:41:39;94292.38;;;19.26;68.94
59009;BME280;44794;42.652;23.318;2022-08-19T01:44:07;94284.47;;;19.26;69.24
59009;BME280;44794;42.652;23.318;2022-08-19T01:46:34;94289.09;;;19.24;69.74
59009;BME280;44794;42.652;23.318;2022-08-19T01:49:00;94291.09;;;19.22;69.97
59009;BME280;44794;42.652;23.318;2022-08-19T01:51:27;94287.81;;;19.20;70.10
59009;BME280;44794;42.652;23.318;2022-08-19T01:53:53;94283.72;;;19.18;69.97
59009;BME280;44794;42.652;23.318;2022-08-19T01:56:20;94295.41;;;19.15;70.56
59009;BME280;44794;42.652;23.318;2022-08-19T01:58:49;94290.13;;;19.15;70.57
59009;BME280;44794;42.652;23.318;2022-08-19T02:01:17;94294.09;;;19.11;70.76
59009;BME280;44794;42.652;23.318;2022-08-19T02:03:43;94287.19;;;19.10;70.47
59009;BME280;44794;42.652;23.318;2022-08-19T02:06:08;94293.44;;;19.09;70.74
59009;BME280;44794;42.652;23.318;2022-08-19T02:08:36;94295.41;;;19.07;70.76
59009;BME280;44794;42.652;23.318;2022-08-19T02:11:03;94287.84;;;19.12;70.99
59009;BME280;44794;42.652;23.318;2022-08-19T02:13:29;94288.66;;;19.13;70.53
59009;BME280;44794;42.652;23.318;2022-08-19T02:15:55;94290.13;;;19.15;70.79
59009;BME280;44794;42.652;23.318;2022-08-19T02:18:20;94293.41;;;19.17;71.02
59009;BME280;44794;42.652;23.318;2022-08-19T02:20:46;94284.19;;;19.21;70.53
59009;BME280;44794;42.652;23.318;2022-08-19T02:23:14;94282.19;;;19.23;70.57
59009;BME280;44794;42.652;23.318;2022-08-19T02:25:41;94288.63;;;19.21;70.39
59009;BME280;44794;42.652;23.318;2022-08-19T02:28:06;94293.41;;;19.17;70.77
59009;BME280;44794;42.652;23.318;2022-08-19T02:30:32;94293.75;;;19.14;70.54
59009;BME280;44794;42.652;23.318;2022-08-19T02:32:57;94288.50;;;19.14;70.34
59009;BME280;44794;42.652;23.318;2022-08-19T02:35:24;94294.09;;;19.11;70.15
59009;BME280;44794;42.652;23.318;2022-08-19T02:37:49;94296.72;;;19.11;70.40
59009;BME280;44794;42.652;23.318;2022-08-19T02:40:34;94289.19;;;19.00;71.08
59009;BME280;44794;42.652;23.318;2022-08-19T02:43:00;94292.50;;;18.94;71.91
59009;BME280;44794;42.652;23.318;2022-08-19T02:45:26;94297.59;;;18.88;72.05
59009;BME280;44794;42.652;23.318;2022-08-19T02:47:52;94295.00;;;18.80;71.84
59009;BME280;44794;42.652;23.318;2022-08-19T02:50:18;94305.41;;;18.74;72.69
59009;BME280;44794;42.652;23.318;2022-08-19T02:52:43;94297.50;;;18.66;73.35
59009;BME280;44794;42.652;23.318;2022-08-19T02:55:10;94298.50;;;18.57;73.68
59009;BME280;44794;42.652;23.318;2022-08-19T02:57:35;94304.28;;;18.44;73.31
59009;BME280;44794;42.652;23.318;2022-08-19T03:00:02;94304.28;;;18.36;74.16
59009;BME280;44794;42.652;23.318;2022-08-19T03:02:28;94302.81;;;18.34;74.24
59009;BME280;44794;42.652;23.318;2022-08-19T03:04:55;94309.41;;;18.30;74.31
59009;BME280;44794;42.652;23.318;2022-08-19T03:07:21;94305.63;;;18.24;74.79
59009;BME280;44794;42.652;23.318;2022-08-19T03:09:46;94311.38;;;18.20;74.93
59009;BME280;44794;42.652;23.318;2022-08-19T03:12:11;94305.75;;;18.15;75.30
59009;BME280;44794;42.652;23.318;2022-08-19T03:14:37;94300.81;;;18.12;75.32
59009;BME280;44794;42.652;23.318;2022-08-19T03:17:03;94294.09;;;18.09;75.64
59009;BME280;44794;42.652;23.318;2022-08-19T03:19:30;94298.72;;;18.08;75.41
59009;BME280;44794;42.652;23.318;2022-08-19T03:21:57;94297.22;;;18.05;75.40
59009;BME280;44794;42.652;23.318;2022-08-19T03:24:22;94291.47;;;18.02;75.73
59009;BME280;44794;42.652;23.318;2022-08-19T03:26:53;94291.47;;;18.02;75.36
59009;BME280;44794;42.652;23.318;2022-08-19T03:29:22;94293.59;;;18.06;75.00
59009;BME280;44794;42.652;23.318;2022-08-19T03:31:47;94295.25;;;18.07;75.27
59009;BME280;44794;42.652;23.318;2022-08-19T03:34:15;94294.25;;;18.08;75.63
59009;BME280;44794;42.652;23.318;2022-08-19T03:36:42;94291.81;;;18.07;75.81
59009;BME280;44794;42.652;23.318;2022-08-19T03:39:09;94296.72;;;18.09;75.46
59009;BME280;44794;42.652;23.318;2022-08-19T03:41:40;94295.56;;;18.12;75.41
59009;BME280;44794;42.652;23.318;2022-08-19T03:44:06;94304.78;;;18.16;75.64
59009;BME280;44794;42.652;23.318;2022-08-19T03:46:34;94310.53;;;18.19;75.63
59009;BME280;44794;42.652;23.318;2022-08-19T03:49:02;94312.34;;;18.27;75.31
59009;BME280;44794;42.652;23.318;2022-08-19T03:51:37;94316.94;;;18.33;75.17
59009;BME280;44794;42.652;23.318;2022-08-19T03:54:07;94326.00;;;18.38;74.92
59009;BME280;44794;42.652;23.318;2022-08-19T03:56:34;94325.00;;;18.47;74.84
59009;BME280;44794;42.652;23.318;2022-08-19T03:59:01;94334.03;;;18.53;74.55
59009;BME280;44794;42.652;23.318;2022-08-19T04:01:28;94326.78;;;18.63;74.21
59009;BME280;44794;42.652;23.318;2022-08-19T04:03:55;94326.44;;;18.74;73.70
59009;BME280;44794;42.652;23.318;2022-08-19T04:06:48;94338.41;;;18.84;73.17
59009;BME280;44794;42.652;23.318;2022-08-19T04:09:13;94346.13;;;18.93;72.16
59009;BME280;44794;42.652;23.318;2022-08-19T04:11:42;94339.69;;;19.04;71.56
59009;BME280;44794;42.652;23.318;2022-08-19T04:14:10;94342.81;;;19.15;70.72
59009;BME280;44794;42.652;23.318;2022-08-19T04:16:36;94342.09;;;19.29;70.19
59009;BME280;44794;42.652;23.318;2022-08-19T04:19:04;94345.97;;;19.41;69.85
59009;BME280;44794;42.652;23.318;2022-08-19T04:21:30;94344.25;;;19.56;69.34
59009;BME280;44794;42.652;23.318;2022-08-19T04:23:56;94339.94;;;19.63;68.87
59009;BME280;44794;42.652;23.318;2022-08-19T04:26:28;94349.75;;;19.77;69.42
59009;BME280;44794;42.652;23.318;2022-08-19T04:28:58;94350.00;;;19.90;69.25
59009;BME280;44794;42.652;23.318;2022-08-19T04:31:26;94354.53;;;20.04;68.16
59009;BME280;44794;42.652;23.318;2022-08-19T04:33:56;94355.44;;;20.19;68.21
59009;BME280;44794;42.652;23.318;2022-08-19T04:36:26;94349.72;;;20.30;68.56
59009;BME280;44794;42.652;23.318;2022-08-19T04:38:57;94343.59;;;20.37;68.74
59009;BME280;44794;42.652;23.318;2022-08-19T04:41:23;94347.31;;;20.42;68.32
59009;BME280;44794;42.652;23.318;2022-08-19T04:44:08;94351.06;;;20.48;67.37
59009;BME280;44794;42.652;23.318;2022-08-19T04:46:33;94352.25;;;20.60;66.79
59009;BME280;44794;42.652;23.318;2022-08-19T04:49:01;94338.28;;;20.74;66.38
59009;BME280;44794;42.652;23.318;2022-08-19T04:51:27;94346.09;;;20.90;65.10
59009;BME280;44794;42.652;23.318;2022-08-19T04:53:53;94352.00;;;21.06;63.95
59009;BME280;44794;42.652;23.318;2022-08-19T04:56:20;94351.50;;;21.25;63.42
59009;BME280;44794;42.652;23.318;2022-08-19T04:58:48;94358.47;;;21.47;62.54
59009;BME280;44794;42.652;23.318;2022-08-19T05:01:21;94359.94;;;21.64;62.30
59009;BME280;44794;42.652;23.318;2022-08-19T05:03:47;94363.13;;;21.74;61.95
59009;BME280;44794;42.652;23.318;2022-08-19T05:06:15;94365.28;;;21.85;61.43
59009;BME280;44794;42.652;23.318;2022-08-19T05:08:42;94367.81;;;21.92;61.05
59009;BME280;44794;42.652;23.318;2022-08-19T05:11:18;94365.88;;;22.01;61.55
59009;BME280;44794;42.652;23.318;2022-08-19T05:13:45;94368.31;;;22.17;61.09
59009;BME280;44794;42.652;23.318;2022-08-19T05:16:13;94368.34;;;22.38;61.21
59009;BME280;44794;42.652;23.318;2022-08-19T05:18:39;94363.59;;;22.54;60.29
59009;BME280;44794;42.652;23.318;2022-08-19T05:21:24;94354.03;;;22.53;60.46
59009;BME280;44794;42.652;23.318;2022-08-19T05:24:09;94365.47;;;22.81;59.42
59009;BME280;44794;42.652;23.318;2022-08-19T05:26:38;94357.94;;;23.05;58.57
59009;BME280;44794;42.652;23.318;2022-08-19T05:29:04;94367.91;;;23.31;57.04
59009;BME280;44794;42.652;23.318;2022-08-19T05:31:30;94367.66;;;23.59;55.96
59009;BME280;44794;42.652;23.318;2022-08-19T05:33:56;94373.09;;;23.85;54.60
59009;BME280;44794;42.652;23.318;2022-08-19T05:36:28;94378.88;;;24.02;54.62
59009;BME280;44794;42.652;23.318;2022-08-19T05:38:54;94363.03;;;24.21;53.45
59009;BME280;44794;42.652;23.318;2022-08-19T05:41:20;94370.72;;;24.89;52.19
59009;BME280;44794;42.652;23.318;2022-08-19T05:43:52;94374.75;;;26.93;46.54
59009;BME280;44794;42.652;23.318;2022-08-19T05:46:18;94384.53;;;28.91;41.37
59009;BME280;44794;42.652;23.318;2022-08-19T05:48:44;94389.28;;;30.10;38.59
59009;BME280;44794;42.652;23.318;2022-08-19T05:51:10;94387.41;;;30.89;36.88
59009;BME280;44794;42.652;23.318;2022-08-19T05:53:36;94386.50;;;31.93;34.66
59009;BME280;44794;42.652;23.318;2022-08-19T05:56:06;94375.13;;;33.77;31.67
59009;BME280;44794;42.652;23.318;2022-08-19T05:58:32;94385.81;;;33.62;30.79
59009;BME280;44794;42.652;23.318;2022-08-19T06:00:58;94393.72;;;34.15;30.05
59009;BME280;44794;42.652;23.318;2022-08-19T06:03:32;94394.19;;;35.24;28.83
59009;BME280;44794;42.652;23.318;2022-08-19T06:05:59;94393.97;;;36.00;26.51
59009;BME280;44794;42.652;23.318;2022-08-19T06:08:27;94396.63;;;37.08;25.03
59009;BME280;44794;42.652;23.318;2022-08-19T06:10:54;94403.72;;;38.14;23.68
59009;BME280;44794;42.652;23.318;2022-08-19T06:13:19;94393.47;;;36.81;25.24
59009;BME280;44794;42.652;23.318;2022-08-19T06:15:46;94396.03;;;37.97;24.19
59009;BME280;44794;42.652;23.318;2022-08-19T06:18:12;94389.75;;;36.72;25.67
59009;BME280;44794;42.652;23.318;2022-08-19T06:20:38;94395.88;;;37.84;24.51
59009;BME280;44794;42.652;23.318;2022-08-19T06:23:04;94400.81;;;37.77;24.20
59009;BME280;44794;42.652;23.318;2022-08-19T06:25:29;94401.78;;;38.71;23.59
59009;BME280;44794;42.652;23.318;2022-08-19T06:27:55;94399.88;;;39.36;22.66
59009;BME280;44794;42.652;23.318;2022-08-19T06:30:21;94401.91;;;39.26;22.81
59009;BME280;44794;42.652;23.318;2022-08-19T06:32:46;94399.34;;;39.34;23.09
59009;BME280;44794;42.652;23.318;2022-08-19T06:35:11;94407.34;;;39.81;22.64
59009;BME280;44794;42.652;23.318;2022-08-19T06:37:40;94404.94;;;39.01;23.50
59009;BME280;44794;42.652;23.318;2022-08-19T06:40:07;94405.75;;;39.02;23.39
59009;BME280;44794;42.652;23.318;2022-08-19T06:42:34;94406.28;;;40.27;21.83
59009;BME280;44794;42.652;23.318;2022-08-19T06:45:00;94400.13;;;40.54;21.38
59009;BME280;44794;42.652;23.318;2022-08-19T06:47:29;94407.63;;;40.30;21.93
59009;BME280;44794;42.652;23.318;2022-08-19T06:49:56;94400.25;;;39.48;22.84
59009;BME280;44794;42.652;23.318;2022-08-19T06:52:27;94401.91;;;40.45;22.36
59009;BME280;44794;42.652;23.318;2022-08-19T06:54:52;94400.53;;;40.87;21.46
59009;BME280;44794;42.652;23.318;2022-08-19T06:57:19;94398.31;;;41.03;21.18
59009;BME280;44794;42.652;23.318;2022-08-19T06:59:45;94400.00;;;40.13;22.06
59009;BME280;44794;42.652;23.318;2022-08-19T07:02:10;94401.44;;;40.24;21.60
59009;BME280;44794;42.652;23.318;2022-08-19T07:04:36;94402.00;;;40.53;21.39
59009;BME280;44794;42.652;23.318;2022-08-19T07:07:06;94413.63;;;41.53;20.68
59009;BME280;44794;42.652;23.318;2022-08-19T07:09:33;94405.19;;;40.28;21.25
59009;BME280;44794;42.652;23.318;2022-08-19T07:11:59;94411.69;;;39.09;22.78
59009;BME280;44794;42.652;23.318;2022-08-19T07:14:27;94410.69;;;38.53;23.55
59009;BME280;44794;42.652;23.318;2022-08-19T07:16:54;94400.28;;;37.75;24.39
59009;BME280;44794;42.652;23.318;2022-08-19T07:19:22;94403.97;;;35.65;26.47
59009;BME280;44794;42.652;23.318;2022-08-19T07:21:49;94402.28;;;35.34;27.59
59009;BME280;44794;42.652;23.318;2022-08-19T07:24:18;94398.53;;;35.25;27.69
59009;BME280;44794;42.652;23.318;2022-08-19T07:26:44;94396.34;;;33.37;30.41
59009;BME280;44794;42.652;23.318;2022-08-19T07:29:11;94393.88;;;32.03;32.70
59009;BME280;44794;42.652;23.318;2022-08-19T07:31:36;94399.88;;;31.72;33.51
59009;BME280;44794;42.652;23.318;2022-08-19T07:34:04;94385.88;;;31.21;33.98
59009;BME280;44794;42.652;23.318;2022-08-19T07:36:36;94384.56;;;30.79;34.50
59009;BME280;44794;42.652;23.318;2022-08-19T07:39:06;94389.53;;;30.59;34.96
59009;BME280;44794;42.652;23.318;2022-08-19T07:41:32;94383.88;;;30.72;35.27
59009;BME280;44794;42.652;23.318;2022-08-19T07:43:59;94386.53;;;30.44;36.16
59009;BME280;44794;42.652;23.318;2022-08-19T07:46:31;94382.94;;;30.27;37.27
59009;BME280;44794;42.652;23.318;2022-08-19T07:48:59;94379.56;;;30.32;36.62
59009;BME280;44794;42.652;23.318;2022-08-19T07:51:26;94377.91;;;30.42;36.29
59009;BME280;44794;42.652;23.318;2022-08-19T07:53:51;94391.78;;;30.39;37.40
59009;BME280;44794;42.652;23.318;2022-08-19T07:56:19;94387.34;;;30.33;36.88
59009;BME280;44794;42.652;23.318;2022-08-19T07:58:46;94381.06;;;30.28;37.30
59009;BME280;44794;42.652;23.318;2022-08-19T08:01:17;94388.16;;;29.94;37.11
59009;BME280;44794;42.652;23.318;2022-08-19T08:03:44;94387.53;;;30.15;37.10
59009;BME280;44794;42.652;23.318;2022-08-19T08:06:28;94390.97;;;30.39;37.32
59009;BME280;44794;42.652;23.318;2022-08-19T08:09:15;94386.41;;;30.39;36.39
59009;BME280;44794;42.652;23.318;2022-08-19T08:14:47;94384.84;;;30.27;36.92
59009;BME280;44794;42.652;23.318;2022-08-19T08:17:13;94374.88;;;30.50;37.15
59009;BME280;44794;42.652;23.318;2022-08-19T08:19:39;94371.56;;;30.20;36.94
59009;BME280;44794;42.652;23.318;2022-08-19T08:22:08;94368.00;;;30.31;36.18
59009;BME280;44794;42.652;23.318;2022-08-19T08:24:54;94371.81;;;30.19;36.25
59009;BME280;44794;42.652;23.318;2022-08-19T08:27:23;94374.00;;;30.10;36.03
59009;BME280;44794;42.652;23.318;2022-08-19T08:29:49;94363.06;;;30.12;35.27
59009;BME280;44794;42.652;23.318;2022-08-19T08:32:14;94364.88;;;30.34;35.77
59009;BME280;44794;42.652;23.318;2022-08-19T08:34:40;94366.84;;;30.50;34.98
59009;BME280;44794;42.652;23.318;2022-08-19T08:37:05;94362.16;;;30.57;36.51
59009;BME280;44794;42.652;23.318;2022-08-19T08:39:30;94361.88;;;30.86;36.02
59009;BME280;44794;42.652;23.318;2022-08-19T08:42:16;94360.34;;;30.90;34.63
59009;BME280;44794;42.652;23.318;2022-08-19T08:44:53;94363.47;;;30.71;34.74
59009;BME280;44794;42.652;23.318;2022-08-19T08:47:23;94361.31;;;30.45;34.34
59009;BME280;44794;42.652;23.318;2022-08-19T08:49:59;94362.81;;;30.25;34.34
59009;BME280;44794;42.652;23.318;2022-08-19T08:52:31;94356.56;;;30.47;35.21
59009;BME280;44794;42.652;23.318;2022-08-19T08:55:04;94345.56;;;30.60;34.63
59009;BME280;44794;42.652;23.318;2022-08-19T08:57:36;94355.06;;;30.79;34.05
59009;BME280;44794;42.652;23.318;2022-08-19T09:00:06;94347.84;;;30.68;33.52
59009;BME280;44794;42.652;23.318;2022-08-19T09:02:32;94355.06;;;30.79;33.67
59009;BME280;44794;42.652;23.318;2022-08-19T09:04:57;94348.00;;;30.89;32.72
59009;BME280;44794;42.652;23.318;2022-08-19T09:10:16;94340.31;;;31.09;31.91
59009;BME280;44794;42.652;23.318;2022-08-19T09:15:42;94347.56;;;31.41;32.08
59009;BME280;44794;42.652;23.318;2022-08-19T09:18:10;94343.59;;;31.27;30.88
59009;BME280;44794;42.652;23.318;2022-08-19T09:20:35;94340.31;;;31.26;30.80
59009;BME280;44794;42.652;23.318;2022-08-19T09:23:01;94333.97;;;31.15;30.10
59009;BME280;44794;42.652;23.318;2022-08-19T09:25:27;94334.88;;;31.21;29.85
59009;BME280;44794;42.652;23.318;2022-08-19T09:27:54;94334.94;;;31.26;29.89
59009;BME280;44794;42.652;23.318;2022-08-19T09:30:28;94332.19;;;31.21;30.18
59009;BME280;44794;42.652;23.318;2022-08-19T09:32:54;94332.44;;;31.35;31.01
59009;BME280;44794;42.652;23.318;2022-08-19T09:35:22;94325.25;;;31.41;29.65
59009;BME280;44794;42.652;23.318;2022-08-19T09:37:48;94325.66;;;31.49;29.58
59009;BME280;44794;42.652;23.318;2022-08-19T09:40:16;94320.09;;;31.72;30.86
59009;BME280;44794;42.652;23.318;2022-08-19T09:42:43;94324.22;;;31.96;29.34
59009;BME280;44794;42.652;23.318;2022-08-19T09:45:12;94324.25;;;31.80;29.00
59009;BME280;44794;42.652;23.318;2022-08-19T09:47:38;94319.25;;;31.88;29.36
59009;BME280;44794;42.652;23.318;2022-08-19T09:50:08;94320.19;;;31.77;28.66
59009;BME280;44794;42.652;23.318;2022-08-19T09:52:34;94316.09;;;31.75;28.89
59009;BME280;44794;42.652;23.318;2022-08-19T09:55:04;94317.63;;;31.49;28.46
59009;BME280;44794;42.652;23.318;2022-08-19T09:57:29;94311.97;;;31.67;27.90
59009;BME280;44794;42.652;23.318;2022-08-19T09:59:55;94309.41;;;31.94;27.88
59009;BME280;44794;42.652;23.318;2022-08-19T10:02:20;94305.34;;;32.12;28.24
59009;BME280;44794;42.652;23.318;2022-08-19T10:04:46;94299.84;;;32.24;27.16
59009;BME280;44794;42.652;23.318;2022-08-19T10:07:30;94304.09;;;32.41;26.70
59009;BME280;44794;42.652;23.318;2022-08-19T10:09:56;94305.41;;;32.39;27.11
59009;BME280;44794;42.652;23.318;2022-08-19T10:12:22;94293.72;;;32.28;26.85
59009;BME280;44794;42.652;23.318;2022-08-19T10:14:47;94292.97;;;32.11;26.86
59009;BME280;44794;42.652;23.318;2022-08-19T10:17:13;94289.09;;;32.24;27.67
59009;BME280;44794;42.652;23.318;2022-08-19T10:19:40;94292.50;;;32.41;26.86
59009;BME280;44794;42.652;23.318;2022-08-19T10:22:06;94289.94;;;32.51;27.27
59009;BME280;44794;42.652;23.318;2022-08-19T10:24:33;94293.91;;;32.70;27.33
59009;BME280;44794;42.652;23.318;2022-08-19T10:27:00;94284.13;;;32.59;26.95
59009;BME280;44794;42.652;23.318;2022-08-19T10:29:29;94284.69;;;32.61;26.91
59009;BME280;44794;42.652;23.318;2022-08-19T10:31:55;94282.66;;;32.73;26.57
59009;BME280;44794;42.652;23.318;2022-08-19T10:34:23;94271.13;;;32.77;26.74
59009;BME280;44794;42.652;23.318;2022-08-19T10:36:49;94279.50;;;32.81;26.29
59009;BME280;44794;42.652;23.318;2022-08-19T10:39:14;94277.63;;;32.81;26.34
59009;BME280;44794;42.652;23.318;2022-08-19T10:41:40;94276.75;;;32.76;26.32
59009;BME280;44794;42.652;23.318;2022-08-19T10:44:11;94281.28;;;32.70;26.67
59009;BME280;44794;42.652;23.318;2022-08-19T10:46:40;94268.59;;;32.66;26.21
59009;BME280;44794;42.652;23.318;2022-08-19T10:49:09;94270.00;;;32.73;27.20
59009;BME280;44794;42.652;23.318;2022-08-19T10:51:35;94273.56;;;32.79;26.05
59009;BME280;44794;42.652;23.318;2022-08-19T10:54:19;94268.81;;;32.90;26.06
59009;BME280;44794;42.652;23.318;2022-08-19T10:56:45;94274.91;;;33.07;25.98
59009;BME280;44794;42.652;23.318;2022-08-19T10:59:21;94272.69;;;33.04;25.89
59009;BME280;44794;42.652;23.318;2022-08-19T11:01:47;94273.25;;;32.75;26.40
59009;BME280;44794;42.652;23.318;2022-08-19T11:04:14;94263.81;;;32.73;26.47
59009;BME280;44794;42.652;23.318;2022-08-19T11:06:46;94272.00;;;32.35;26.86
59009;BME280;44794;42.652;23.318;2022-08-19T11:09:14;94266.47;;;32.20;27.10
59009;BME280;44794;42.652;23.318;2022-08-19T11:11:41;94267.84;;;32.22;27.22
59009;BME280;44794;42.652;23.318;2022-08-19T11:14:08;94267.16;;;32.32;26.93
59009;BME280;44794;42.652;23.318;2022-08-19T11:16:35;94267.19;;;32.37;27.04
59009;BME280;44794;42.652;23.318;2022-08-19T11:19:00;94260.03;;;32.47;27.15
59009;BME280;44794;42.652;23.318;2022-08-19T11:21:31;94262.47;;;32.49;27.13
59009;BME280;44794;42.652;23.318;2022-08-19T11:24:00;94264.31;;;32.43;27.00
59009;BME280;44794;42.652;23.318;2022-08-19T11:26:27;94258.72;;;32.50;26.90
59009;BME280;44794;42.652;23.318;2022-08-19T11:28:53;94254.09;;;32.67;26.65
59009;BME280;44794;42.652;23.318;2022-08-19T11:31:33;94251.31;;;32.88;27.85
59009;BME280;44794;42.652;23.318;2022-08-19T11:34:02;94249.66;;;33.13;26.42
59009;BME280;44794;42.652;23.318;2022-08-19T11:36:28;94248.06;;;33.17;26.37
59009;BME280;44794;42.652;23.318;2022-08-19T11:38:54;94246.38;;;33.06;26.76
59009;BME280;44794;42.652;23.318;2022-08-19T11:41:21;94242.19;;;32.94;27.08
59009;BME280;44794;42.652;23.318;2022-08-19T11:43:49;94232.84;;;33.01;26.98
59009;BME280;44794;42.652;23.318;2022-08-19T11:46:15;94248.41;;;32.94;26.49
59009;BME280;44794;42.652;23.318;2022-08-19T11:48:42;94235.88;;;32.79;26.87
59009;BME280;44794;42.652;23.318;2022-08-19T11:51:10;94234.78;;;33.06;27.40
59009;BME280;44794;42.652;23.318;2022-08-19T11:53:37;94234.88;;;33.21;26.06
59009;BME280;44794;42.652;23.318;2022-08-19T11:56:04;94241.28;;;33.10;26.38
59009;BME280;44794;42.652;23.318;2022-08-19T11:58:30;94235.16;;;33.19;26.24
59009;BME280;44794;42.652;23.318;2022-08-19T12:00:56;94233.63;;;33.33;26.41
59009;BME280;44794;42.652;23.318;2022-08-19T12:03:22;94227.28;;;33.49;26.61
59009;BME280;44794;42.652;23.318;2022-08-19T12:05:48;94224.16;;;33.67;26.69
59009;BME280;44794;42.652;23.318;2022-08-19T12:08:14;94221.25;;;33.73;25.74
59009;BME280;44794;42.652;23.318;2022-08-19T12:10:40;94218.28;;;33.80;25.63
59009;BME280;44794;42.652;23.318;2022-08-19T12:13:08;94210.16;;;33.70;25.69
59009;BME280;44794;42.652;23.318;2022-08-19T12:15:38;94216.13;;;33.77;25.75
59009;BME280;44794;42.652;23.318;2022-08-19T12:18:07;94211.31;;;33.79;25.35
59009;BME280;44794;42.652;23.318;2022-08-19T12:20:38;94199.41;;;33.75;25.63
59009;BME280;44794;42.652;23.318;2022-08-19T12:23:05;94197.22;;;33.67;25.76
59009;BME280;44794;42.652;23.318;2022-08-19T12:25:31;94202.47;;;33.47;25.62
59009;BME280;44794;42.652;23.318;2022-08-19T12:27:57;94194.69;;;33.51;25.75
59009;BME280;44794;42.652;23.318;2022-08-19T12:30:22;94192.63;;;33.21;26.05
59009;BME280;44794;42.652;23.318;2022-08-19T12:32:48;94194.84;;;33.29;25.96
59009;BME280;44794;42.652;23.318;2022-08-19T12:35:13;94189.00;;;33.42;25.71
59009;BME280;44794;42.652;23.318;2022-08-19T12:37:39;94185.88;;;33.60;26.02
59009;BME280;44794;42.652;23.318;2022-08-19T12:40:10;94184.19;;;33.49;26.35
59009;BME280;44794;42.652;23.318;2022-08-19T12:42:37;94183.91;;;33.51;26.11
59009;BME280;44794;42.652;23.318;2022-08-19T12:45:07;94179.97;;;33.63;25.62
59009;BME280;44794;42.652;23.318;2022-08-19T12:47:32;94177.34;;;33.78;26.32
59009;BME280;44794;42.652;23.318;2022-08-19T12:49:58;94178.19;;;33.88;25.58
59009;BME280;44794;42.652;23.318;2022-08-19T12:52:25;94173.91;;;34.02;25.88
59009;BME280;44794;42.652;23.318;2022-08-19T12:54:55;94173.16;;;34.07;25.08
59009;BME280;44794;42.652;23.318;2022-08-19T12:57:23;94174.78;;;34.13;25.74
59009;BME280;44794;42.652;23.318;2022-08-19T12:59:52;94167.53;;;34.28;25.60
59009;BME280;44794;42.652;23.318;2022-08-19T13:02:20;94176.69;;;34.17;24.97